Rainbow, Texas
Current Conditions -  °F | °C
As of 3:35 AM on Thursday 23 Oct 2014 (Local Time) from KGDJ Reporting Station
Overcast Overcast  
Wind Chill: 20°   Ceiling: 8000
Heat Index: 20°   Visibility: 10mi
Dew Point: 14°   Wind: 5mph
Humidity: 67%   Direction: 120°ESE
Pressure: 30.12"   Gusts: NA
Location:  32.27°N, 97.7°W
Report Text: KGDJ 230835Z AUTO 12004KT 10SM SCT060 OVC080 20/14 A3012 RMK AO2 T02030140
Loading
Personal Weather Stations






























Interactive Weather Map
Tropical Storm Tracking
New forecast layout! Learn more

10-Day Weather Forecast

Advertisements
Track Severe Weather on mobile